createdAt,value
2019-01-12T00:01:17.786Z,0.80
2019-01-12T00:03:52.186Z,0.70
2019-01-12T00:06:24.801Z,0.70
2019-01-12T00:08:57.166Z,0.70
2019-01-12T00:11:29.635Z,0.70
2019-01-12T00:14:02.079Z,0.70
2019-01-12T00:16:36.086Z,0.70
2019-01-12T00:19:08.463Z,0.70
2019-01-12T00:21:41.272Z,0.80
2019-01-12T00:24:13.789Z,0.80
2019-01-12T00:26:46.280Z,0.80
2019-01-12T00:29:18.712Z,0.80
2019-01-12T00:31:51.384Z,0.80
2019-01-12T00:34:23.808Z,0.80
2019-01-12T00:36:56.569Z,0.80
2019-01-12T00:39:29.166Z,0.80
2019-01-12T00:42:01.707Z,0.80
2019-01-12T00:44:34.305Z,0.80
2019-01-12T00:47:06.752Z,0.70
2019-01-12T00:49:39.398Z,0.80
2019-01-12T00:52:11.937Z,0.80
2019-01-12T00:54:55.922Z,0.80
2019-01-12T00:57:28.573Z,0.70
2019-01-12T01:00:01.413Z,0.80
2019-01-12T01:02:33.814Z,0.70
2019-01-12T01:05:07.325Z,0.80
2019-01-12T01:07:39.818Z,0.80
2019-01-12T01:10:18.788Z,0.80
2019-01-12T01:12:52.763Z,0.80
2019-01-12T01:15:25.079Z,0.80
2019-01-12T01:17:57.581Z,0.80
2019-01-12T01:20:30.014Z,0.80
2019-01-12T01:23:02.314Z,0.80
2019-01-12T01:25:35.165Z,0.90
2019-01-12T01:28:07.627Z,0.90
2019-01-12T01:30:39.947Z,0.90
2019-01-12T01:33:12.777Z,1.00
2019-01-12T01:35:45.128Z,1.00
2019-01-12T01:38:17.199Z,0.90
2019-01-12T01:40:49.489Z,0.90
2019-01-12T01:43:21.747Z,0.90
2019-01-12T01:45:54.043Z,0.90
2019-01-12T01:48:27.006Z,0.90
2019-01-12T01:50:59.413Z,0.90
2019-01-12T01:53:31.720Z,0.90
2019-01-12T01:56:04.279Z,0.90
2019-01-12T01:58:36.815Z,1.00
2019-01-12T02:01:09.748Z,1.10
2019-01-12T02:03:42.126Z,1.00
2019-01-12T02:06:14.552Z,1.00
2019-01-12T02:08:47.116Z,1.00
2019-01-12T02:11:19.489Z,1.00
2019-01-12T02:13:51.977Z,1.10
2019-01-12T02:16:24.418Z,1.10
2019-01-12T02:18:57.425Z,1.10
2019-01-12T02:21:29.888Z,1.10
2019-01-12T02:24:03.003Z,1.10
2019-01-12T02:26:35.247Z,1.10
2019-01-12T02:29:07.932Z,1.20
2019-01-12T02:31:40.324Z,1.20
2019-01-12T02:34:13.061Z,1.10
2019-01-12T02:36:45.414Z,1.20
2019-01-12T02:39:17.974Z,1.20
2019-01-12T02:41:50.443Z,1.10
2019-01-12T02:44:22.919Z,1.20
2019-01-12T02:46:55.419Z,1.20
2019-01-12T02:49:27.853Z,1.20
2019-01-12T02:52:00.335Z,1.20
2019-01-12T02:54:33.089Z,1.20
2019-01-12T02:57:07.679Z,1.10
2019-01-12T02:59:40.125Z,1.20
2019-01-12T03:02:12.432Z,1.30
2019-01-12T03:04:45.015Z,1.40
2019-01-12T03:07:19.197Z,1.30
2019-01-12T03:09:51.724Z,1.40
2019-01-12T03:12:24.277Z,1.40
2019-01-12T03:14:56.632Z,1.40
2019-01-12T03:17:29.045Z,1.30
2019-01-12T03:20:02.423Z,1.40
2019-01-12T03:22:35.058Z,1.40
2019-01-12T03:25:08.287Z,1.40
2019-01-12T03:27:40.556Z,1.50
2019-01-12T03:30:19.023Z,1.50
2019-01-12T03:32:51.352Z,1.50
2019-01-12T03:35:23.931Z,1.50
2019-01-12T03:37:56.584Z,1.50
2019-01-12T03:40:29.109Z,1.50
2019-01-12T03:43:01.652Z,1.60
2019-01-12T03:45:34.328Z,1.50
2019-01-12T03:48:06.985Z,1.60
2019-01-12T03:50:39.747Z,1.60
2019-01-12T03:53:12.103Z,1.60
2019-01-12T03:55:44.417Z,1.60
2019-01-12T03:58:16.902Z,1.60
2019-01-12T04:00:49.425Z,1.60
2019-01-12T04:03:21.911Z,1.80
2019-01-12T04:05:54.485Z,1.70
2019-01-12T04:08:26.961Z,1.70
2019-01-12T04:10:59.759Z,1.70
2019-01-12T04:13:33.962Z,1.80
2019-01-12T04:16:06.615Z,1.70
2019-01-12T04:18:39.148Z,1.70
2019-01-12T04:21:12.647Z,1.70
2019-01-12T04:23:45.413Z,1.70
2019-01-12T04:26:17.709Z,1.80
2019-01-12T04:28:50.301Z,1.80
2019-01-12T04:31:22.516Z,1.80
2019-01-12T04:33:55.182Z,1.80
2019-01-12T04:36:27.507Z,1.70
2019-01-12T04:38:59.869Z,1.80
2019-01-12T04:41:43.549Z,1.80
2019-01-12T04:44:17.670Z,1.90
2019-01-12T04:46:50.037Z,1.90
2019-01-12T04:49:22.958Z,1.90
2019-01-12T04:51:56.936Z,1.90
2019-01-12T04:54:29.335Z,1.90
2019-01-12T04:57:01.721Z,1.90
2019-01-12T04:59:35.886Z,1.90
2019-01-12T05:02:08.404Z,2.00
2019-01-12T05:04:40.877Z,1.90
2019-01-12T05:07:15.370Z,1.90
2019-01-12T05:09:49.369Z,1.90
2019-01-12T05:12:21.665Z,1.90
2019-01-12T05:14:55.811Z,2.00
2019-01-12T05:17:28.350Z,2.00
2019-01-12T05:20:01.094Z,2.00
2019-01-12T05:22:33.774Z,2.00
2019-01-12T05:25:07.500Z,1.90
2019-01-12T05:27:39.925Z,1.90
2019-01-12T05:30:17.151Z,1.90
2019-01-12T05:32:49.673Z,1.90
2019-01-12T05:35:22.403Z,2.00
2019-01-12T05:37:54.802Z,2.10
2019-01-12T05:40:28.726Z,2.10
2019-01-12T05:43:01.229Z,2.10
2019-01-12T05:45:33.626Z,2.10
2019-01-12T05:48:05.824Z,2.00
2019-01-12T05:50:38.514Z,2.10
2019-01-12T05:53:11.065Z,2.10
2019-01-12T05:55:43.570Z,2.10
2019-01-12T05:58:16.108Z,2.10
2019-01-12T06:00:48.376Z,2.10
2019-01-12T06:03:20.890Z,2.10
2019-01-12T06:05:53.468Z,2.00
2019-01-12T06:08:25.769Z,2.10
2019-01-12T06:10:58.425Z,2.10
2019-01-12T06:13:32.315Z,2.10
2019-01-12T06:16:04.783Z,2.20
2019-01-12T06:18:37.074Z,2.10
2019-01-12T06:21:09.544Z,2.10
2019-01-12T06:23:41.781Z,2.20
2019-01-12T06:26:14.391Z,2.10
2019-01-12T06:28:46.635Z,2.10
2019-01-12T06:31:19.034Z,2.10
2019-01-12T06:33:51.433Z,2.20
2019-01-12T06:36:23.871Z,2.20
2019-01-12T06:38:57.100Z,2.10
2019-01-12T06:41:29.651Z,2.10
2019-01-12T06:44:02.055Z,2.10
2019-01-12T06:46:34.477Z,2.20
2019-01-12T06:49:07.069Z,2.20
2019-01-12T06:51:39.818Z,2.20
2019-01-12T06:54:23.487Z,2.20
2019-01-12T06:56:56.113Z,2.20
2019-01-12T06:59:28.586Z,2.20
2019-01-12T07:02:01.181Z,2.20
2019-01-12T07:04:33.577Z,2.30
2019-01-12T07:07:17.251Z,2.30
2019-01-12T07:10:00.630Z,2.30
2019-01-12T07:12:35.089Z,2.30
2019-01-12T07:15:12.695Z,2.40
2019-01-12T07:17:45.553Z,2.40
2019-01-12T07:20:19.320Z,2.30
2019-01-12T07:22:51.678Z,2.40
2019-01-12T07:25:24.126Z,2.40
2019-01-12T07:27:56.654Z,2.40
2019-01-12T07:30:29.063Z,2.50
2019-01-12T07:33:12.773Z,2.50
2019-01-12T07:35:45.180Z,2.50
2019-01-12T07:38:17.735Z,2.50
2019-01-12T07:41:08.825Z,2.70
2019-01-12T07:43:52.028Z,2.70
2019-01-12T07:46:24.698Z,2.70
2019-01-12T07:48:57.438Z,2.70
2019-01-12T07:51:41.263Z,2.70
2019-01-12T07:54:13.678Z,2.70
2019-01-12T07:56:46.269Z,2.90
2019-01-12T07:59:19.177Z,2.80
2019-01-12T08:01:51.728Z,2.80
2019-01-12T08:04:24.032Z,2.80
2019-01-12T08:06:56.826Z,2.70
2019-01-12T08:09:29.423Z,2.70
2019-01-12T08:12:01.879Z,2.80
2019-01-12T08:14:34.462Z,2.80
2019-01-12T08:17:07.217Z,2.90
2019-01-12T08:19:39.742Z,3.00
2019-01-12T08:22:12.091Z,3.00
2019-01-12T08:24:44.769Z,3.00
2019-01-12T08:27:17.370Z,3.00
2019-01-12T08:29:49.824Z,3.00
2019-01-12T08:32:22.199Z,3.00
2019-01-12T08:34:54.542Z,3.00
2019-01-12T08:37:26.833Z,3.10
2019-01-12T08:39:59.310Z,3.20
2019-01-12T08:42:31.797Z,3.20
2019-01-12T08:45:05.634Z,3.20
2019-01-12T08:47:38.069Z,3.10
2019-01-12T08:50:15.281Z,3.10
2019-01-12T08:52:47.867Z,3.00
2019-01-12T08:55:20.700Z,3.10
2019-01-12T08:57:53.341Z,3.00
2019-01-12T09:00:28.896Z,3.10
2019-01-12T09:03:01.349Z,3.00
2019-01-12T09:05:33.838Z,3.10
2019-01-12T09:08:06.287Z,3.10
2019-01-12T09:10:38.967Z,3.10
2019-01-12T09:13:11.767Z,3.10
2019-01-12T09:15:44.398Z,3.10
2019-01-12T09:18:17.074Z,3.10
2019-01-12T09:20:49.593Z,3.10
2019-01-12T09:23:22.080Z,3.10
2019-01-12T09:25:54.410Z,3.10
2019-01-12T09:28:26.831Z,3.10
2019-01-12T09:30:59.413Z,3.20
2019-01-12T09:33:42.665Z,3.20
2019-01-12T09:36:15.272Z,3.20
2019-01-12T09:38:48.938Z,3.20
2019-01-12T09:41:21.197Z,3.10
2019-01-12T09:43:53.688Z,3.10
2019-01-12T09:46:26.397Z,3.20
2019-01-12T09:48:58.817Z,3.20
2019-01-12T09:51:31.816Z,3.20
2019-01-12T09:54:04.797Z,3.20
2019-01-12T09:56:51.686Z,3.30
2019-01-12T09:59:21.493Z,3.30
2019-01-12T10:01:53.916Z,3.30
2019-01-12T10:04:26.856Z,3.30
2019-01-12T10:06:59.272Z,3.40
2019-01-12T10:09:50.486Z,3.40
2019-01-12T10:12:23.425Z,3.30
2019-01-12T10:14:56.011Z,3.30
2019-01-12T10:17:28.628Z,3.30
2019-01-12T10:20:01.158Z,3.30
2019-01-12T10:22:34.461Z,3.30
2019-01-12T10:25:08.379Z,3.30
2019-01-12T10:27:41.094Z,3.30
2019-01-12T10:30:26.022Z,3.30
2019-01-12T10:33:00.247Z,3.30
2019-01-12T10:35:32.875Z,3.40
2019-01-12T10:38:05.674Z,3.40
2019-01-12T10:40:38.801Z,3.40
2019-01-12T10:43:11.236Z,3.40
2019-01-12T10:45:43.727Z,3.40
2019-01-12T10:48:16.176Z,3.30
2019-01-12T10:50:48.640Z,3.30
2019-01-12T10:53:21.186Z,3.30
2019-01-12T10:55:53.981Z,3.30
2019-01-12T10:58:26.400Z,3.40
2019-01-12T11:00:59.000Z,3.50
2019-01-12T11:03:31.411Z,3.50
2019-01-12T11:06:03.901Z,3.50
2019-01-12T11:08:36.296Z,3.40
2019-01-12T11:11:08.752Z,3.40
2019-01-12T11:13:41.195Z,3.50
2019-01-12T11:16:13.743Z,3.50
2019-01-12T11:18:47.468Z,3.50
2019-01-12T11:21:19.986Z,3.60
2019-01-12T11:23:52.557Z,3.50
2019-01-12T11:26:25.137Z,3.50
2019-01-12T11:28:57.641Z,3.50
2019-01-12T11:31:31.051Z,3.60
2019-01-12T11:34:03.808Z,3.60
2019-01-12T11:36:36.291Z,3.70
2019-01-12T11:39:10.034Z,3.70
2019-01-12T11:41:42.920Z,3.70
2019-01-12T11:44:15.816Z,3.70
2019-01-12T11:46:48.445Z,3.70
2019-01-12T11:49:20.763Z,3.70
2019-01-12T11:51:53.889Z,3.70
2019-01-12T11:54:26.201Z,3.70
2019-01-12T11:56:58.541Z,3.70
2019-01-12T11:59:31.382Z,3.80
2019-01-12T12:02:04.163Z,3.80
2019-01-12T12:04:37.723Z,3.80
2019-01-12T12:07:10.309Z,3.80
2019-01-12T12:09:42.741Z,3.80
2019-01-12T12:12:15.501Z,3.90
2019-01-12T12:14:47.954Z,3.90
2019-01-12T12:17:20.322Z,3.90
2019-01-12T12:19:52.806Z,4.00
2019-01-12T12:22:25.143Z,4.00
2019-01-12T12:24:57.843Z,4.00
2019-01-12T12:27:30.327Z,4.00
2019-01-12T12:30:02.932Z,4.10
2019-01-12T12:32:35.376Z,4.20
2019-01-12T12:35:08.609Z,4.10
2019-01-12T12:37:59.873Z,4.20
2019-01-12T12:40:32.583Z,4.10
2019-01-12T12:43:06.545Z,4.20
2019-01-12T12:45:40.036Z,4.20
2019-01-12T12:48:23.206Z,4.20
2019-01-12T12:51:06.597Z,4.30
2019-01-12T12:53:39.252Z,4.20
2019-01-12T12:56:22.686Z,4.20
2019-01-12T12:58:58.345Z,4.20
2019-01-12T13:01:30.933Z,4.20
2019-01-12T13:04:03.685Z,4.30
2019-01-12T13:06:36.057Z,4.20
2019-01-12T13:09:10.565Z,4.20
2019-01-12T13:11:43.031Z,4.30
2019-01-12T13:14:15.356Z,4.20
2019-01-12T13:16:48.783Z,4.20
2019-01-12T13:19:21.271Z,4.20
2019-01-12T13:21:53.676Z,4.20
2019-01-12T13:24:25.999Z,4.20
2019-01-12T13:26:58.625Z,4.10
2019-01-12T13:29:31.518Z,4.10
2019-01-12T13:32:03.854Z,4.10
2019-01-12T13:34:36.146Z,4.10
2019-01-12T13:37:08.540Z,4.20
2019-01-12T13:39:40.862Z,4.10
2019-01-12T13:42:13.404Z,4.10
2019-01-12T13:44:45.870Z,4.10
2019-01-12T13:47:21.027Z,4.20
2019-01-12T13:49:52.249Z,4.20
2019-01-12T13:52:35.541Z,4.20
2019-01-12T13:55:11.528Z,4.30
2019-01-12T13:57:47.951Z,4.30
2019-01-12T14:00:35.097Z,4.30
2019-01-12T14:03:09.987Z,4.40
2019-01-12T14:05:42.728Z,4.40
2019-01-12T14:08:15.589Z,4.40
2019-01-12T14:10:47.938Z,4.40
2019-01-12T14:13:21.337Z,4.40
2019-01-12T14:15:53.799Z,4.30
2019-01-12T14:18:27.229Z,4.30
2019-01-12T14:20:59.913Z,4.30
2019-01-12T14:23:32.400Z,4.20
2019-01-12T14:26:05.012Z,4.20
2019-01-12T14:28:37.659Z,4.20
2019-01-12T14:31:10.624Z,4.20
2019-01-12T14:33:43.213Z,4.20
2019-01-12T14:36:16.031Z,4.20
2019-01-12T14:38:48.703Z,4.20
2019-01-12T14:41:21.268Z,4.30
2019-01-12T14:43:53.920Z,4.30
2019-01-12T14:46:26.647Z,4.20
2019-01-12T14:48:59.002Z,4.20
2019-01-12T14:51:31.622Z,4.20
2019-01-12T14:54:04.251Z,4.20
2019-01-12T14:56:36.918Z,4.20
2019-01-12T14:59:09.500Z,4.10
2019-01-12T15:01:42.085Z,4.10
2019-01-12T15:04:14.579Z,4.10
2019-01-12T15:06:47.367Z,4.10
2019-01-12T15:09:19.915Z,4.10
2019-01-12T15:11:52.373Z,4.10
2019-01-12T15:14:26.311Z,4.10
2019-01-12T15:16:59.199Z,4.10
2019-01-12T15:19:32.141Z,4.10
2019-01-12T15:22:05.143Z,4.10
2019-01-12T15:24:38.245Z,4.00
2019-01-12T15:27:22.865Z,4.00
2019-01-12T15:29:55.687Z,4.00
2019-01-12T15:32:28.021Z,4.00
2019-01-12T15:35:00.592Z,4.00
2019-01-12T15:37:32.959Z,4.00
2019-01-12T15:40:06.694Z,4.00
2019-01-12T15:42:39.470Z,4.00
2019-01-12T15:45:19.028Z,4.00
2019-01-12T15:47:51.622Z,4.10
2019-01-12T15:50:26.368Z,4.10
2019-01-12T15:52:58.830Z,4.10
2019-01-12T15:55:31.378Z,4.00
2019-01-12T15:58:05.235Z,4.10
2019-01-12T16:00:37.473Z,4.10
2019-01-12T16:03:09.906Z,4.00
2019-01-12T16:05:42.408Z,4.10
2019-01-12T16:08:15.362Z,4.10
2019-01-12T16:10:47.670Z,4.00
2019-01-12T16:13:20.105Z,4.00
2019-01-12T16:15:52.746Z,4.10
2019-01-12T16:18:25.254Z,4.10
2019-01-12T16:20:57.818Z,4.10
2019-01-12T16:23:30.415Z,4.10
2019-01-12T16:26:03.008Z,4.10
2019-01-12T16:28:35.598Z,4.30
2019-01-12T16:31:08.193Z,4.20
2019-01-12T16:33:40.758Z,4.20
2019-01-12T16:36:16.393Z,4.30
2019-01-12T16:38:48.886Z,4.20
2019-01-12T16:41:21.506Z,4.20
2019-01-12T16:43:54.093Z,4.20
2019-01-12T16:46:27.851Z,4.20
2019-01-12T16:49:00.586Z,4.20
2019-01-12T16:51:33.229Z,4.20
2019-01-12T16:54:05.908Z,4.20
2019-01-12T16:56:38.333Z,4.20
2019-01-12T16:59:11.067Z,4.20
2019-01-12T17:01:43.584Z,4.30
2019-01-12T17:04:16.373Z,4.30
2019-01-12T17:06:48.670Z,4.30
2019-01-12T17:09:21.070Z,4.20
2019-01-12T17:11:53.454Z,4.20
2019-01-12T17:14:25.901Z,4.20
2019-01-12T17:16:58.836Z,4.30
2019-01-12T17:19:31.378Z,4.30
2019-01-12T17:22:03.767Z,4.40
2019-01-12T17:24:37.202Z,4.30
2019-01-12T17:27:09.640Z,4.30
2019-01-12T17:29:42.197Z,4.30
2019-01-12T17:32:14.944Z,4.30
2019-01-12T17:34:47.933Z,4.40
2019-01-12T17:37:20.389Z,4.40
2019-01-12T17:39:53.009Z,4.30
2019-01-12T17:42:25.489Z,4.30
2019-01-12T17:44:58.203Z,4.30
2019-01-12T17:47:30.647Z,4.30
2019-01-12T17:50:03.150Z,4.30
2019-01-12T17:52:36.854Z,4.30
2019-01-12T17:55:12.428Z,4.30
2019-01-12T17:57:45.060Z,4.40
2019-01-12T18:00:49.645Z,4.40
2019-01-12T18:03:22.686Z,4.30
2019-01-12T18:05:55.175Z,4.30
2019-01-12T18:08:29.517Z,4.30
2019-01-12T18:11:01.915Z,4.30
2019-01-12T18:13:34.715Z,4.30
2019-01-12T18:16:07.227Z,4.30
2019-01-12T18:18:39.818Z,4.30
2019-01-12T18:21:12.626Z,4.30
2019-01-12T18:23:44.939Z,4.30
2019-01-12T18:26:17.520Z,4.40
2019-01-12T18:28:51.606Z,4.40
2019-01-12T18:31:25.059Z,4.40
2019-01-12T18:33:57.659Z,4.30
2019-01-12T18:36:30.478Z,4.30
2019-01-12T18:39:04.931Z,4.30
2019-01-12T18:41:37.524Z,4.40
2019-01-12T18:44:09.983Z,4.50
2019-01-12T18:46:42.543Z,4.50
2019-01-12T18:49:15.075Z,4.50
2019-01-12T18:51:47.598Z,4.50
2019-01-12T18:54:21.634Z,4.40
2019-01-12T18:56:54.181Z,4.40
2019-01-12T18:59:26.846Z,4.40
2019-01-12T19:01:59.686Z,4.40
2019-01-12T19:04:32.311Z,4.40
2019-01-12T19:07:05.082Z,4.40
2019-01-12T19:09:39.556Z,4.50
2019-01-12T19:12:12.303Z,4.50
2019-01-12T19:14:44.576Z,4.50
2019-01-12T19:17:16.942Z,4.60
2019-01-12T19:19:49.547Z,4.60
2019-01-12T19:22:22.052Z,4.60
2019-01-12T19:24:55.259Z,4.60
2019-01-12T19:27:28.026Z,4.60
2019-01-12T19:30:01.232Z,4.60
2019-01-12T19:32:33.860Z,4.70
2019-01-12T19:35:06.884Z,4.70
2019-01-12T19:37:39.546Z,4.80
2019-01-12T19:40:16.121Z,4.70
2019-01-12T19:42:48.704Z,4.70
2019-01-12T19:45:21.472Z,4.70
2019-01-12T19:47:54.327Z,4.70
2019-01-12T19:50:29.046Z,4.70
2019-01-12T19:53:01.342Z,4.70
2019-01-12T19:55:34.290Z,4.70
2019-01-12T19:58:07.129Z,4.80
2019-01-12T20:00:39.542Z,4.80
2019-01-12T20:03:12.385Z,4.80
2019-01-12T20:05:45.356Z,4.70
2019-01-12T20:08:18.050Z,4.70
2019-01-12T20:10:51.346Z,4.70
2019-01-12T20:13:23.874Z,4.70
2019-01-12T20:15:56.609Z,4.70
2019-01-12T20:18:28.843Z,4.70
2019-01-12T20:21:01.598Z,4.70
2019-01-12T20:23:34.460Z,4.70
2019-01-12T20:26:07.338Z,4.60
2019-01-12T20:28:40.263Z,4.60
2019-01-12T20:31:46.374Z,4.60
2019-01-12T20:35:00.602Z,4.70
2019-01-12T20:38:32.778Z,4.70
2019-01-12T20:42:04.938Z,4.60
2019-01-12T20:45:09.151Z,4.60
2019-01-12T20:48:22.273Z,4.60
2019-01-12T20:51:52.668Z,4.60
2019-01-12T20:54:54.723Z,4.70
2019-01-12T20:58:31.148Z,4.80
2019-01-12T21:02:02.478Z,4.80
2019-01-12T21:05:12.594Z,4.80
2019-01-12T21:08:32.002Z,4.80
2019-01-12T21:12:07.687Z,4.80
2019-01-12T21:15:25.559Z,4.80
2019-01-12T21:17:58.269Z,4.80
2019-01-12T21:20:30.825Z,4.80
2019-01-12T21:23:03.565Z,4.80
2019-01-12T21:25:36.132Z,4.90
2019-01-12T21:28:10.549Z,4.90
2019-01-12T21:30:44.435Z,4.90
2019-01-12T21:33:18.568Z,4.90
2019-01-12T21:35:51.073Z,5.00
2019-01-12T21:38:23.981Z,5.00
2019-01-12T21:40:57.995Z,4.90
2019-01-12T21:43:30.755Z,4.90
2019-01-12T21:46:03.420Z,5.00
2019-01-12T21:48:35.778Z,5.00
2019-01-12T21:51:08.184Z,5.00
2019-01-12T21:53:40.576Z,5.00
2019-01-12T21:56:13.870Z,4.90
2019-01-12T21:58:46.552Z,4.80
2019-01-12T22:01:19.427Z,4.70
2019-01-12T22:03:52.093Z,4.70
2019-01-12T22:06:24.834Z,4.70
2019-01-12T22:08:57.244Z,4.60
2019-01-12T22:11:29.922Z,4.60
2019-01-12T22:14:02.314Z,4.60
2019-01-12T22:16:34.853Z,4.50
2019-01-12T22:19:07.645Z,4.60
2019-01-12T22:21:40.807Z,4.60
2019-01-12T22:24:13.547Z,4.60
2019-01-12T22:26:46.374Z,4.50
2019-01-12T22:29:19.066Z,4.50
2019-01-12T22:31:51.471Z,4.40
2019-01-12T22:34:23.892Z,4.40
2019-01-12T22:36:56.443Z,4.30
2019-01-12T22:39:29.135Z,4.40
2019-01-12T22:42:01.527Z,4.40
2019-01-12T22:44:33.993Z,4.40
2019-01-12T22:47:06.228Z,4.40
2019-01-12T22:49:38.719Z,4.40
2019-01-12T22:52:11.259Z,4.40
2019-01-12T22:54:43.979Z,4.40
2019-01-12T22:57:16.415Z,4.30
2019-01-12T22:59:48.965Z,4.30
2019-01-12T23:02:21.795Z,4.30
2019-01-12T23:04:55.195Z,4.30
2019-01-12T23:07:27.626Z,4.30
2019-01-12T23:10:00.020Z,4.30
2019-01-12T23:12:32.354Z,4.30
2019-01-12T23:15:06.948Z,4.30
2019-01-12T23:17:39.373Z,4.40
2019-01-12T23:20:12.489Z,4.50
2019-01-12T23:22:44.958Z,4.50
2019-01-12T23:25:17.568Z,4.40
2019-01-12T23:27:50.451Z,4.50
2019-01-12T23:30:34.507Z,4.50
2019-01-12T23:33:07.116Z,4.50
2019-01-12T23:35:39.442Z,4.50
2019-01-12T23:38:12.514Z,4.50
2019-01-12T23:40:44.818Z,4.50
2019-01-12T23:43:17.290Z,4.50
2019-01-12T23:45:49.641Z,4.50
2019-01-12T23:48:22.058Z,4.60
2019-01-12T23:50:54.439Z,4.50
2019-01-12T23:53:26.807Z,4.50
2019-01-12T23:55:59.322Z,4.50
2019-01-12T23:58:31.801Z,4.50
